Time;durP1;ratioP1;P1;durP2;ratioP2;P2;SDS_P1;SDS_P2;PMS_P1;PMS_P2;Temp;Humidity;BMP_temperature;BMP_pressure;BME280_temperature;BME280_humidity;BME280_pressure;Samples;Min_cycle;Max_cycle;Signal;HPM_P1;HPM_P2
2021/10/22 00:00:21;;;;;;;3.30;1.20;;;;;;;-145.69;100.00;71911.84;5075771;28;20201;-76
2021/10/22 00:02:50;;;;;;;1.10;0.97;;;;;;;-145.69;100.00;71919.78;5073885;28;20202;-76
2021/10/22 00:05:17;;;;;;;4.27;1.20;;;;;;;-145.69;100.00;71915.81;5076469;28;20715;-76
2021/10/22 00:07:45;;;;;;;1.77;1.10;;;;;;;-145.69;100.00;71917.81;5076472;28;20198;-76
2021/10/22 00:10:11;;;;;;;1.10;1.03;;;;;;;-145.69;100.00;71927.75;5076450;28;20209;-75
2021/10/22 00:12:39;;;;;;;4.50;1.23;;;;;;;-145.69;100.00;71933.72;5076585;28;20202;-76
2021/10/22 00:15:10;;;;;;;6.03;2.00;;;;;;;-145.69;100.00;71937.69;5076558;28;20209;-76
2021/10/22 00:17:37;;;;;;;1.80;1.03;;;;;;;-145.69;100.00;71939.69;5076530;28;20209;-76
2021/10/22 00:20:05;;;;;;;1.20;0.90;;;;;;;-145.69;100.00;71939.69;5076325;28;20213;-76
2021/10/22 00:22:34;;;;;;;2.40;1.03;;;;;;;-145.69;100.00;71941.69;5076160;28;20206;-76
2021/10/22 00:25:04;;;;;;;1.53;1.00;;;;;;;-145.69;100.00;71939.69;5076054;28;20317;-75
2021/10/22 00:27:30;;;;;;;3.33;1.20;;;;;;;-145.69;100.00;71957.59;5076306;28;20203;-76
2021/10/22 00:29:59;;;;;;;2.77;1.23;;;;;;;-145.69;100.00;71943.69;5076116;28;20195;-76
2021/10/22 00:32:25;;;;;;;3.27;1.00;;;;;;;-145.69;100.00;71959.59;5076066;28;20202;-76
2021/10/22 00:34:52;;;;;;;4.47;1.57;;;;;;;-145.69;100.00;71959.59;5075737;28;20725;-76
2021/10/22 00:37:21;;;;;;;1.77;1.20;;;;;;;-145.69;100.00;71953.63;5075900;28;20206;-76
2021/10/22 00:39:47;;;;;;;2.63;1.40;;;;;;;-145.69;100.00;71955.63;5075877;28;20290;-76
2021/10/22 00:42:15;;;;;;;2.13;1.60;;;;;;;-145.69;100.00;71955.63;5075803;28;20211;-76
2021/10/22 00:44:42;;;;;;;1.50;1.20;;;;;;;-145.69;100.00;71955.63;5075868;28;20231;-76
2021/10/22 00:47:10;;;;;;;2.10;1.27;;;;;;;-145.69;100.00;71957.59;5075885;28;20205;-76
2021/10/22 00:49:36;;;;;;;2.23;1.87;;;;;;;-145.69;100.00;71959.59;5075649;28;20203;-77
2021/10/22 00:52:03;;;;;;;1.77;1.63;;;;;;;-145.69;100.00;71971.53;5075933;28;20198;-76
2021/10/22 00:54:30;;;;;;;1.70;1.57;;;;;;;-145.69;100.00;71973.53;5075852;28;20202;-76
2021/10/22 00:56:57;;;;;;;1.80;1.43;;;;;;;-145.69;100.00;71967.56;5075741;28;20198;-76
2021/10/22 00:59:23;;;;;;;1.50;1.40;;;;;;;-145.69;100.00;71967.56;5075659;28;20195;-76
2021/10/22 01:01:50;;;;;;;1.40;1.20;;;;;;;-145.69;100.00;71963.56;5075572;28;20205;-76
2021/10/22 01:04:18;;;;;;;3.03;1.40;;;;;;;-145.69;100.00;71963.56;5075318;28;20318;-77
2021/10/22 01:06:48;;;;;;;2.65;1.50;;;;;;;-145.69;100.00;71959.59;5075510;28;20461;-77
2021/10/22 01:09:16;;;;;;;2.67;1.80;;;;;;;-145.69;100.00;71959.59;5075533;28;20727;-77
2021/10/22 01:11:43;;;;;;;2.57;1.30;;;;;;;-145.69;100.00;71957.59;5075021;28;20203;-77
2021/10/22 01:14:09;;;;;;;4.60;1.53;;;;;;;-145.69;100.00;71955.63;5074792;28;20207;-76
2021/10/22 01:16:38;;;;;;;2.10;1.40;;;;;;;-145.69;100.00;71963.56;5075593;28;20209;-77
2021/10/22 01:19:05;;;;;;;4.50;1.60;;;;;;;-145.69;100.00;71955.63;5075344;28;20665;-76
2021/10/22 01:21:33;;;;;;;1.63;1.20;;;;;;;-145.69;100.00;72003.38;5075582;28;20604;-76
2021/10/22 01:24:03;;;;;;;1.70;1.30;;;;;;;-145.69;100.00;72011.34;5075263;28;20222;-75
2021/10/22 01:26:30;;;;;;;2.70;1.00;;;;;;;-145.69;100.00;72043.19;5075320;28;20203;-76
2021/10/22 01:28:59;;;;;;;1.03;0.93;;;;;;;-145.69;100.00;72053.13;5075024;28;20195;-76
2021/10/22 01:31:26;;;;;;;1.20;1.00;;;;;;;-145.69;100.00;72075.03;5075049;28;20199;-76
2021/10/22 01:33:53;;;;;;;3.00;1.10;;;;;;;-145.69;100.00;72079.00;5074955;28;20265;-76
2021/10/22 01:36:20;;;;;;;1.10;1.00;;;;;;;-145.69;100.00;72075.03;5074999;28;20199;-76
2021/10/22 01:38:48;;;;;;;3.97;1.10;;;;;;;-145.69;100.00;72082.97;5075069;28;20319;-76
2021/10/22 01:41:14;;;;;;;4.70;1.30;;;;;;;-145.69;100.00;72094.94;5075007;28;20206;-76
2021/10/22 01:43:47;;;;;;;1.87;1.30;;;;;;;-145.69;100.00;72102.88;5074787;28;20214;-76
2021/10/22 01:46:13;;;;;;;1.50;1.30;;;;;;;-145.69;100.00;72088.97;5074928;28;20203;-76
2021/10/22 01:48:40;;;;;;;2.63;1.40;;;;;;;-145.69;100.00;72096.91;5074817;28;20205;-76
2021/10/22 01:51:07;;;;;;;1.97;1.23;;;;;;;-145.69;100.00;72110.84;5074860;28;20199;-76
2021/10/22 01:53:34;;;;;;;4.50;1.63;;;;;;;-145.69;100.00;72104.88;5074693;28;20209;-76
2021/10/22 01:56:02;;;;;;;4.17;1.60;;;;;;;-145.69;100.00;72106.88;5077034;28;20206;-75
2021/10/22 01:58:31;;;;;;;3.83;1.60;;;;;;;-145.69;100.00;72106.88;5074468;28;20203;-76
2021/10/22 02:00:58;;;;;;;1.77;1.50;;;;;;;-145.69;100.00;72106.88;5074613;28;20218;-76
2021/10/22 02:03:24;;;;;;;2.47;1.70;;;;;;;-145.69;100.00;72106.88;5074583;28;20558;-76
2021/10/22 02:05:51;;;;;;;2.20;1.77;;;;;;;-145.69;100.00;72110.84;5074475;28;20227;-76
2021/10/22 02:08:18;;;;;;;1.60;1.20;;;;;;;-145.69;100.00;72118.81;5074494;28;20198;-76
2021/10/22 02:10:47;;;;;;;1.90;1.60;;;;;;;-145.69;100.00;72126.78;5074360;28;20198;-76
2021/10/22 02:13:15;;;;;;;5.57;2.10;;;;;;;-145.69;100.00;72134.72;5074218;28;20203;-76
2021/10/22 02:15:41;;;;;;;4.60;1.80;;;;;;;-145.69;100.00;72136.72;5074363;28;20227;-76
2021/10/22 02:18:09;;;;;;;4.27;2.40;;;;;;;-145.69;100.00;72154.63;5074422;28;20207;-76
2021/10/22 02:20:38;;;;;;;5.40;1.90;;;;;;;-145.69;100.00;72166.56;5074137;28;20202;-77
2021/10/22 02:23:05;;;;;;;3.70;2.00;;;;;;;-145.69;100.00;72156.63;5074329;28;20593;-75
2021/10/22 02:25:31;;;;;;;6.87;2.93;;;;;;;-145.69;100.00;72164.59;5073477;28;20227;-76
2021/10/22 02:27:58;;;;;;;8.33;3.40;;;;;;;-145.69;100.00;72170.56;5073239;28;20604;-76
2021/10/22 02:30:27;;;;;;;5.87;2.73;;;;;;;-145.69;100.00;72172.53;5074037;28;20210;-76
2021/10/22 02:32:58;;;;;;;3.57;2.10;;;;;;;-145.69;100.00;72180.50;5073988;28;20195;-76
2021/10/22 02:35:24;;;;;;;4.33;1.47;;;;;;;-145.69;100.00;72194.44;5073731;28;20257;-75
2021/10/22 02:37:51;;;;;;;2.37;1.40;;;;;;;-145.69;100.00;72198.41;5073684;28;20256;-75
2021/10/22 02:40:18;;;;;;;2.87;1.30;;;;;;;-145.69;100.00;72192.44;5073690;28;20669;-76
2021/10/22 02:42:45;;;;;;;2.33;1.43;;;;;;;-145.69;100.00;72194.44;5073783;28;20206;-76
2021/10/22 02:45:12;;;;;;;2.03;1.47;;;;;;;-145.69;100.00;72204.38;5073711;28;20308;-76
2021/10/22 02:47:40;;;;;;;4.90;1.17;;;;;;;-145.69;100.00;72202.41;5073746;28;20211;-76
2021/10/22 02:50:07;;;;;;;4.47;1.10;;;;;;;-145.69;100.00;72204.38;5073420;28;20613;-76
2021/10/22 02:52:39;;;;;;;1.47;1.07;;;;;;;-145.69;100.00;72206.38;5073477;28;20264;-76
2021/10/22 02:55:06;;;;;;;3.33;1.00;;;;;;;-145.69;100.00;72226.28;5073664;28;20221;-75
2021/10/22 02:57:33;;;;;;;2.23;1.37;;;;;;;-145.69;100.00;72222.31;5073352;28;20199;-76
2021/10/22 03:00:00;;;;;;;3.10;1.47;;;;;;;-145.69;100.00;72222.31;5073314;28;20653;-75
2021/10/22 03:02:26;;;;;;;2.03;1.20;;;;;;;-145.69;100.00;72220.31;5073244;28;20206;-75
2021/10/22 03:04:55;;;;;;;3.23;1.47;;;;;;;-145.69;100.00;72226.28;5073311;28;20230;-75
2021/10/22 03:07:21;;;;;;;3.53;1.53;;;;;;;-145.69;100.00;72222.31;5073485;28;20199;-76
2021/10/22 03:09:47;;;;;;;7.03;1.70;;;;;;;-145.69;100.00;72226.28;5073349;28;20328;-76
2021/10/22 03:12:14;;;;;;;4.13;1.50;;;;;;;-145.69;100.00;72234.25;5073161;28;20198;-75
2021/10/22 03:14:42;;;;;;;2.37;1.27;;;;;;;-145.69;100.00;72238.22;5073299;28;20198;-76
2021/10/22 03:17:09;;;;;;;2.83;1.63;;;;;;;-145.69;100.00;72234.25;5073232;28;20198;-76
2021/10/22 03:19:35;;;;;;;3.13;1.30;;;;;;;-145.69;100.00;72238.22;5072952;28;20226;-75
2021/10/22 03:22:04;;;;;;;4.67;1.50;;;;;;;-145.69;100.00;72256.13;5073218;28;20203;-76
2021/10/22 03:24:32;;;;;;;2.43;1.40;;;;;;;-145.69;100.00;72250.16;5072902;28;20293;-76
2021/10/22 03:26:59;;;;;;;5.50;1.60;;;;;;;-145.69;100.00;72246.19;5073188;28;20203;-76
2021/10/22 03:29:25;;;;;;;5.63;1.80;;;;;;;-145.69;100.00;72242.22;5072835;28;20202;-75
2021/10/22 03:31:51;;;;;;;6.63;1.90;;;;;;;-145.69;100.00;72250.16;5072868;28;20535;-75
2021/10/22 03:34:21;;;;;;;8.67;1.90;;;;;;;-145.69;100.00;72242.22;5072599;28;20261;-75
2021/10/22 03:36:50;;;;;;;4.77;1.90;;;;;;;-145.69;100.00;72246.19;5072967;28;20199;-76
2021/10/22 03:39:18;;;;;;;2.90;1.97;;;;;;;-145.69;100.00;72246.19;5072703;28;20199;-76
2021/10/22 03:41:45;;;;;;;5.47;1.80;;;;;;;-145.69;100.00;72248.19;5072924;28;20221;-76
2021/10/22 03:44:11;;;;;;;7.50;2.03;;;;;;;-145.69;100.00;72248.19;5072822;28;20202;-75
2021/10/22 03:46:40;;;;;;;3.70;1.73;;;;;;;-145.69;100.00;72244.19;5072801;28;20609;-76
2021/10/22 03:49:08;;;;;;;6.13;1.97;;;;;;;-145.69;100.00;72254.16;5072858;28;20203;-76
2021/10/22 03:51:35;;;;;;;8.80;2.20;;;;;;;-145.69;100.00;72258.13;5072881;28;20199;-75
2021/10/22 03:54:03;;;;;;;4.57;2.20;;;;;;;-145.69;100.00;72250.16;5072864;28;20198;-76
2021/10/22 03:56:31;;;;;;;4.30;2.00;;;;;;;-145.69;100.00;72254.16;5072752;28;20203;-75
2021/10/22 03:58:58;;;;;;;9.67;2.53;;;;;;;-145.69;100.00;72258.13;5072691;28;20696;-76
2021/10/22 04:01:24;;;;;;;5.53;2.63;;;;;;;-145.69;100.00;72254.16;5072551;28;20199;-76
2021/10/22 04:03:53;;;;;;;6.27;2.77;;;;;;;-145.69;100.00;72256.13;5075716;28;20240;-77
2021/10/22 04:06:20;;;;;;;6.67;2.27;;;;;;;-145.69;100.00;72264.09;5092821;28;20320;-76
2021/10/22 04:08:46;;;;;;;3.63;2.20;;;;;;;-145.69;100.00;72266.09;5092739;28;20197;-76
2021/10/22 04:11:13;;;;;;;7.90;2.37;;;;;;;-145.69;100.00;72266.09;5092843;28;20209;-77
2021/10/22 04:13:41;;;;;;;6.30;2.70;;;;;;;-145.69;100.00;72254.16;5092463;28;20198;-76
2021/10/22 04:16:07;;;;;;;4.63;2.60;;;;;;;-145.69;100.00;72254.16;5092976;28;20570;-76
2021/10/22 04:18:34;;;;;;;4.53;2.17;;;;;;;-145.69;100.00;72254.16;5092910;28;20205;-77
2021/10/22 04:21:01;;;;;;;6.57;2.80;;;;;;;-145.69;100.00;72254.16;5092793;28;20221;-76
2021/10/22 04:23:27;;;;;;;7.00;3.43;;;;;;;-145.69;100.00;72258.13;5092805;28;20572;-76
2021/10/22 04:25:55;;;;;;;5.57;2.73;;;;;;;-145.69;100.00;72256.13;5092592;28;20658;-76
2021/10/22 04:28:22;;;;;;;10.70;4.13;;;;;;;-145.69;100.00;72270.06;5092044;28;20562;-76
2021/10/22 04:30:50;;;;;;;4.60;3.30;;;;;;;-145.69;100.00;72254.16;5092775;28;20198;-76
2021/10/22 04:33:17;;;;;;;12.13;3.23;;;;;;;-145.69;100.00;72250.16;5092775;28;20202;-76
2021/10/22 04:35:43;;;;;;;5.93;3.13;;;;;;;-145.69;100.00;72242.22;5092351;28;20624;-77
2021/10/22 04:40:30;;;;;;;8.97;2.43;;;;;;;-145.69;100.00;72250.16;5092406;28;20293;-76
2021/10/22 04:41:13;;;;;;;6.37;2.53;;;;;;;-145.69;100.00;72264.09;5092371;28;20653;-76
2021/10/22 04:43:40;;;;;;;7.13;2.67;;;;;;;-145.69;100.00;72278.03;5092643;28;20198;-76
2021/10/22 04:46:14;;;;;;;7.83;2.33;;;;;;;-145.69;100.00;72278.03;5092265;28;20232;-76
2021/10/22 04:48:40;;;;;;;3.30;2.30;;;;;;;-145.69;100.00;72282.00;5092507;28;20205;-76
2021/10/22 04:51:07;;;;;;;6.20;2.30;;;;;;;-145.69;100.00;72276.03;5095529;28;20221;-76
2021/10/22 04:53:33;;;;;;;6.67;2.40;;;;;;;-145.69;100.00;72280.03;5096216;28;20255;-76
2021/10/22 04:56:00;;;;;;;13.93;2.73;;;;;;;-145.69;100.00;72280.03;5096173;28;20571;-76
2021/10/22 04:58:27;;;;;;;9.47;3.00;;;;;;;-145.69;100.00;72287.97;5096116;28;20245;-76
2021/10/22 05:00:53;;;;;;;5.93;2.70;;;;;;;-145.69;100.00;72286.00;5095986;28;20204;-76
2021/10/22 05:03:21;;;;;;;15.53;2.47;;;;;;;-145.69;100.00;72295.94;5095894;28;20205;-76
2021/10/22 05:05:51;;;;;;;9.37;2.57;;;;;;;-145.69;100.00;72301.91;5095552;28;20308;-76
2021/10/22 05:08:17;;;;;;;10.80;2.97;;;;;;;-145.69;100.00;72295.94;5096148;28;20239;-76
2021/10/22 05:10:44;;;;;;;7.57;2.60;;;;;;;-145.69;100.00;72297.94;5095697;28;20210;-76
2021/10/22 05:13:11;;;;;;;9.37;2.37;;;;;;;-145.69;100.00;72301.91;5095791;28;20198;-76
2021/10/22 05:15:37;;;;;;;15.45;3.05;;;;;;;-145.69;100.00;72305.91;5094850;28;20437;-75
2021/10/22 05:18:04;;;;;;;11.33;2.77;;;;;;;-145.69;100.00;72313.84;5095667;28;20618;-76
2021/10/22 05:20:32;;;;;;;8.57;2.50;;;;;;;-145.69;100.00;72321.81;5095339;28;20568;-76
2021/10/22 05:22:59;;;;;;;14.20;3.10;;;;;;;-145.69;100.00;72319.81;5095688;28;20197;-76
2021/10/22 05:25:29;;;;;;;12.80;3.47;;;;;;;-145.69;100.00;72313.84;5095348;28;20561;-76
2021/10/22 05:27:56;;;;;;;6.57;3.17;;;;;;;-145.69;100.00;72311.88;5095492;28;20598;-76
2021/10/22 05:30:23;;;;;;;8.57;2.93;;;;;;;-145.69;100.00;72305.91;5095125;28;20649;-76
2021/10/22 05:32:53;;;;;;;5.57;2.73;;;;;;;-145.69;100.00;72307.88;5095196;28;20252;-77
2021/10/22 05:35:22;;;;;;;8.40;2.80;;;;;;;-145.69;100.00;72299.91;5095111;28;20241;-76
2021/10/22 05:37:50;;;;;;;21.03;12.33;;;;;;;-145.69;100.00;72295.94;5095295;28;20202;-76
2021/10/22 05:40:16;;;;;;;12.63;6.50;;;;;;;-145.69;100.00;72293.94;5094895;28;20585;-77
2021/10/22 05:42:43;;;;;;;10.60;4.10;;;;;;;-145.69;100.00;72301.91;5095146;28;20292;-76
2021/10/22 05:45:10;;;;;;;7.43;3.40;;;;;;;-145.69;100.00;72307.88;5094983;28;20198;-76
2021/10/22 05:47:39;;;;;;;8.30;3.03;;;;;;;-145.69;100.00;72305.91;5094850;28;20653;-76
2021/10/22 05:50:10;;;;;;;12.63;3.17;;;;;;;-145.69;100.00;72305.91;5095053;28;20198;-76
2021/10/22 05:52:36;;;;;;;8.10;3.07;;;;;;;-145.69;100.00;72309.88;5095100;28;20202;-76
2021/10/22 05:55:05;;;;;;;6.13;2.77;;;;;;;-145.69;100.00;72307.88;5094842;28;20607;-76
2021/10/22 05:57:32;;;;;;;10.40;3.30;;;;;;;-145.69;100.00;72315.84;5094807;28;20228;-76
2021/10/22 05:59:58;;;;;;;13.57;3.93;;;;;;;-145.69;100.00;72313.84;5091421;28;20248;-77
2021/10/22 06:02:25;;;;;;;15.97;4.07;;;;;;;-145.69;100.00;72309.88;5094803;28;20251;-77
2021/10/22 06:04:51;;;;;;;11.73;3.70;;;;;;;-145.69;100.00;72305.91;5094861;28;20206;-77
2021/10/22 06:07:18;;;;;;;12.50;4.47;;;;;;;-145.69;100.00;72309.88;5094288;28;20526;-77
2021/10/22 06:09:44;;;;;;;13.67;4.57;;;;;;;-145.69;100.00;72313.84;5094723;28;20205;-77
2021/10/22 06:12:13;;;;;;;11.10;4.33;;;;;;;-145.69;100.00;72313.84;5094678;28;20248;-77
2021/10/22 06:14:40;;;;;;;13.63;4.37;;;;;;;-145.69;100.00;72311.88;5094413;28;20198;-77
2021/10/22 06:17:06;;;;;;;22.00;6.57;;;;;;;-145.69;100.00;72313.84;5094666;28;20201;-77
2021/10/22 06:19:36;;;;;;;9.43;3.73;;;;;;;-145.69;100.00;72313.84;5094258;28;20648;-77
2021/10/22 06:22:21;;;;;;;12.30;4.80;;;;;;;-145.69;100.00;72315.84;5094526;28;20648;-76
2021/10/22 06:24:48;;;;;;;8.03;3.73;;;;;;;-145.69;100.00;72319.81;5094360;28;20645;-77
2021/10/22 06:27:16;;;;;;;15.00;5.23;;;;;;;-145.69;100.00;72323.81;5094129;28;20684;-77
2021/10/22 06:29:42;;;;;;;14.40;5.17;;;;;;;-145.69;100.00;72331.78;5094338;28;20223;-77
2021/10/22 06:32:08;;;;;;;9.47;4.90;;;;;;;-145.69;100.00;72329.78;5094335;28;20248;-77
2021/10/22 06:34:35;;;;;;;13.03;5.83;;;;;;;-145.69;100.00;72333.75;5094050;28;20643;-76
2021/10/22 06:37:01;;;;;;;18.30;5.40;;;;;;;-145.69;100.00;72329.78;5094170;28;20202;-76
2021/10/22 06:39:28;;;;;;;11.13;5.60;;;;;;;-145.69;100.00;72343.72;5094056;28;20202;-77
2021/10/22 06:41:54;;;;;;;17.13;6.10;;;;;;;-145.69;100.00;72357.66;5094085;28;20202;-76
2021/10/22 06:44:26;;;;;;;17.20;5.80;;;;;;;-145.69;100.00;72353.66;5094177;28;20194;-77
2021/10/22 06:46:52;;;;;;;8.30;4.40;;;;;;;-145.69;100.00;72359.63;5094078;28;20276;-76
2021/10/22 06:49:19;;;;;;;16.07;6.40;;;;;;;-145.69;100.00;72349.69;5093984;28;20202;-76
2021/10/22 06:51:45;;;;;;;22.23;7.83;;;;;;;-145.69;100.00;72365.59;5093941;28;20202;-76
2021/10/22 06:54:12;;;;;;;16.97;7.47;;;;;;;-145.69;100.00;72349.69;5093751;28;20198;-76
2021/10/22 06:56:38;;;;;;;15.37;7.53;;;;;;;-145.69;100.00;72339.72;5094059;28;20199;-76
2021/10/22 06:59:05;;;;;;;13.30;6.83;;;;;;;-145.69;100.00;72359.63;5093851;28;20232;-76
2021/10/22 07:01:32;;;;;;;14.50;5.40;;;;;;;-145.69;100.00;72365.59;5093804;28;20238;-76
2021/10/22 07:03:59;;;;;;;12.07;6.03;;;;;;;-145.69;100.00;72369.59;5093708;28;20675;-77
2021/10/22 07:09:09;;;;;;;10.80;5.07;;;;;;;-145.69;100.00;72381.53;5093718;28;20695;-77
2021/10/22 07:11:37;;;;;;;10.77;4.77;;;;;;;-145.69;100.00;72393.47;5093615;28;20198;-77
2021/10/22 07:14:06;;;;;;;8.23;4.07;;;;;;;-145.69;100.00;72405.41;5093023;28;20197;-77
2021/10/22 07:16:34;;;;;;;5.80;3.73;;;;;;;-145.69;100.00;72405.41;5093572;28;20285;-77
2021/10/22 07:19:00;;;;;;;10.57;3.87;;;;;;;-145.69;100.00;72423.31;5093470;28;20610;-76
2021/10/22 07:21:29;;;;;;;8.53;3.90;;;;;;;-145.69;100.00;72427.31;5093338;28;20564;-76
2021/10/22 07:23:57;;;;;;;8.23;3.37;;;;;;;-145.69;100.00;72453.19;5093551;28;20296;-77
2021/10/22 07:26:23;;;;;;;9.90;4.30;;;;;;;-145.69;100.00;72465.13;5093344;28;20581;-76
2021/10/22 07:28:50;;;;;;;5.80;3.70;;;;;;;-145.69;100.00;72485.03;5093223;28;20221;-76
2021/10/22 07:31:18;;;;;;;9.40;3.53;;;;;;;-145.69;100.00;72489.00;5093256;28;20714;-77
2021/10/22 07:33:47;;;;;;;9.50;3.73;;;;;;;-145.69;100.00;72487.00;5092985;28;20230;-77
2021/10/22 07:36:14;;;;;;;9.20;3.80;;;;;;;-145.69;100.00;72496.97;5091492;28;20202;-77
2021/10/22 07:38:42;;;;;;;8.27;4.03;;;;;;;-145.69;100.00;72498.97;5072801;28;20666;-76
2021/10/22 07:41:09;;;;;;;10.77;4.07;;;;;;;-145.69;100.00;72494.97;5072823;28;20677;-76
2021/10/22 07:43:37;;;;;;;7.10;3.57;;;;;;;-145.69;100.00;72500.94;5072967;28;20206;-76
2021/10/22 07:46:03;;;;;;;8.10;4.17;;;;;;;-145.69;100.00;72500.94;5072726;28;20581;-76
2021/10/22 07:48:30;;;;;;;8.20;4.07;;;;;;;-145.69;100.00;72500.94;5077867;28;20209;-76
2021/10/22 07:50:58;;;;;;;12.20;3.80;;;;;;;-145.69;100.00;72510.91;5093038;28;20602;-76
2021/10/22 07:53:25;;;;;;;9.07;3.20;;;;;;;-145.69;100.00;72506.91;5093013;28;20239;-76
2021/10/22 07:55:51;;;;;;;7.90;3.47;;;;;;;-145.69;100.00;72504.94;5092990;28;20197;-76
2021/10/22 07:58:17;;;;;;;23.00;9.20;;;;;;;-145.69;100.00;72493.00;5092951;28;20260;-76
2021/10/22 08:00:44;;;;;;;19.53;6.93;;;;;;;-145.69;100.00;72465.13;5092819;28;20201;-76
2021/10/22 08:03:11;;;;;;;16.07;3.77;;;;;;;-145.69;100.00;72445.22;5093028;28;20237;-76
2021/10/22 08:05:37;;;;;;;12.53;3.00;;;;;;;-145.69;100.00;72445.22;5089705;28;20198;-76
2021/10/22 08:08:06;;;;;;;10.63;2.90;;;;;;;-145.69;100.00;72449.19;5092795;28;20226;-76
2021/10/22 08:10:33;;;;;;;8.63;2.90;;;;;;;-145.69;100.00;72457.16;5092723;28;20198;-76
2021/10/22 08:13:01;;;;;;;8.20;2.20;;;;;;;-145.69;100.00;72467.13;5092761;28;20248;-76
2021/10/22 08:15:27;;;;;;;12.23;2.87;;;;;;;-145.69;100.00;72487.00;5092543;28;20275;-77
2021/10/22 08:17:55;;;;;;;11.87;2.07;;;;;;;-145.69;100.00;72496.97;5092918;28;20202;-77
2021/10/22 08:20:23;;;;;;;7.00;2.70;;;;;;;-145.69;100.00;72493.00;5093057;28;20202;-77
2021/10/22 08:22:49;;;;;;;9.03;2.57;;;;;;;-145.69;100.00;72504.94;5092890;28;20336;-77
2021/10/22 08:25:18;;;;;;;6.87;2.23;;;;;;;-145.69;100.00;72500.94;5094781;28;20209;-78
2021/10/22 08:27:47;;;;;;;11.80;2.43;;;;;;;-145.69;100.00;72504.94;5095789;28;20232;-77
2021/10/22 08:30:17;;;;;;;10.00;2.07;;;;;;;-145.69;100.00;72504.94;5096694;28;20202;-77
2021/10/22 08:32:49;;;;;;;8.20;2.30;;;;;;;-145.69;100.00;72504.94;5096514;28;20198;-78
2021/10/22 08:35:15;;;;;;;4.70;1.80;;;;;;;-145.69;100.00;72500.94;5096594;28;20230;-76
2021/10/22 08:37:42;;;;;;;10.20;2.03;;;;;;;-145.69;100.00;72504.94;5096552;28;20653;-76
2021/10/22 08:40:11;;;;;;;10.23;2.93;;;;;;;-145.69;100.00;72489.00;5095158;28;20199;-77
2021/10/22 08:42:39;;;;;;;10.20;2.50;;;;;;;-145.69;100.00;72465.13;5094851;28;20202;-77
2021/10/22 08:45:06;;;;;;;9.20;2.20;;;;;;;-145.69;100.00;72465.13;5094486;28;20622;-77
2021/10/22 08:47:34;;;;;;;11.03;1.90;;;;;;;-145.69;100.00;72453.19;5095778;28;20226;-77
2021/10/22 08:50:04;;;;;;;13.00;2.10;;;;;;;-145.69;100.00;72449.19;5095586;28;20201;-77
2021/10/22 08:52:31;;;;;;;8.67;2.07;;;;;;;-145.69;100.00;72465.13;5095634;28;20205;-77
2021/10/22 08:54:58;;;;;;;16.73;2.80;;;;;;;-145.69;100.00;72467.13;5095087;28;20256;-77
2021/10/22 08:57:25;;;;;;;15.43;2.33;;;;;;;-145.69;100.00;72483.03;5094338;28;20205;-76
2021/10/22 08:59:57;;;;;;;20.33;2.60;;;;;;;-145.69;100.00;72481.03;5095757;28;20221;-77
2021/10/22 09:02:29;;;;;;;14.13;2.27;;;;;;;-145.69;100.00;72477.06;5096223;28;20209;-77
2021/10/22 09:04:59;;;;;;;8.20;1.80;;;;;;;-145.69;100.00;72477.06;5096002;28;20660;-77
2021/10/22 09:07:39;;;;;;;11.77;2.10;;;;;;;-145.69;100.00;72473.09;5095723;28;20689;-77
2021/10/22 09:10:09;;;;;;;10.60;2.30;;;;;;;-145.69;100.00;72455.16;5095202;28;20656;-77
2021/10/22 09:12:47;;;;;;;7.77;1.97;;;;;;;-145.69;100.00;72435.28;5095713;28;20205;-77
2021/10/22 09:15:20;;;;;;;8.00;1.80;;;;;;;-145.69;100.00;72441.25;5095670;28;20202;-77
2021/10/22 09:17:47;;;;;;;12.80;2.08;;;;;;;-145.69;100.00;72441.25;5095449;28;20484;-77
2021/10/22 09:20:14;;;;;;;11.73;2.00;;;;;;;-145.69;100.00;72439.25;5095927;28;20279;-77
2021/10/22 09:22:48;;;;;;;13.43;1.70;;;;;;;-145.69;95.54;72419.34;5095386;28;20233;-76
2021/10/22 09:25:19;;;;;;;12.53;1.90;;;;;;;-145.69;97.66;72399.44;5095601;28;20247;-76
2021/10/22 09:27:51;;;;;;;6.90;1.57;;;;;;;-145.69;97.63;72403.41;5095596;28;20254;-77
2021/10/22 09:30:32;;;;;;;11.90;1.50;;;;;;;-145.69;91.87;72429.28;5095719;28;20202;-77
2021/10/22 09:33:02;;;;;;;12.77;1.90;;;;;;;-145.69;94.71;72415.38;5095763;28;20606;-76
2021/10/22 09:35:37;;;;;;;9.77;1.80;;;;;;;-145.69;96.82;72401.44;5094563;28;20261;-77
2021/10/22 09:38:17;;;;;;;17.80;2.00;;;;;;;-145.69;91.39;72393.47;5095349;28;20221;-77
2021/10/22 09:40:47;;;;;;;11.77;1.67;;;;;;;-145.69;93.08;72397.44;5095233;28;20194;-77
2021/10/22 09:43:16;;;;;;;9.90;1.70;;;;;;;-145.69;89.50;72405.41;5095513;28;20290;-77
2021/10/22 09:45:48;;;;;;;8.37;1.50;;;;;;;-145.69;91.94;72413.38;5095371;28;20201;-76
2021/10/22 09:48:30;;;;;;;14.37;2.00;;;;;;;-145.69;94.47;72405.41;5094739;28;20225;-77
2021/10/22 09:51:20;;;;;;;12.90;2.10;;;;;;;-145.69;93.17;72405.41;5095132;28;20661;-77
2021/10/22 09:53:47;;;;;;;13.47;1.73;;;;;;;-145.69;93.03;72389.50;5095326;28;20259;-77
2021/10/22 09:56:19;;;;;;;14.07;1.90;;;;;;;-145.69;95.83;72351.66;5095102;28;20202;-76
2021/10/22 09:58:54;;;;;;;8.53;1.70;;;;;;;-145.69;83.27;72367.59;5094878;28;20657;-77
2021/10/22 10:01:28;;;;;;;6.93;1.50;;;;;;;-145.69;83.76;72359.63;5094808;28;20263;-77
2021/10/22 10:03:58;;;;;;;17.73;1.97;;;;;;;-145.69;88.58;72357.66;5094715;28;20198;-77
2021/10/22 10:06:25;;;;;;;10.70;1.80;;;;;;;-145.69;82.89;72349.69;5094905;28;20202;-77
2021/10/22 10:08:52;;;;;;;9.27;1.90;;;;;;;-145.69;85.40;72375.56;5091526;28;20230;-76
2021/10/22 10:11:18;;;;;;;13.97;2.20;;;;;;;-145.69;89.63;72371.56;5094743;28;20606;-76
2021/10/22 10:13:45;;;;;;;9.33;1.73;;;;;;;-145.69;91.04;72371.56;5094368;28;20547;-78
2021/10/22 10:16:14;;;;;;;11.87;1.83;;;;;;;-145.69;86.52;72361.63;5094392;28;20587;-79
2021/10/22 10:18:45;;;;;;;15.23;1.93;;;;;;;-145.69;87.07;72367.59;5094801;28;20214;-79
2021/10/22 10:21:14;;;;;;;6.63;1.70;;;;;;;-145.69;80.69;72385.50;5094735;28;20198;-79
2021/10/22 10:23:43;;;;;;;13.23;2.20;;;;;;;-145.69;82.07;72371.56;5094199;28;20652;-79
2021/10/22 10:26:30;;;;;;;8.90;1.30;;;;;;;-145.69;79.34;72365.59;5094490;28;20275;-78
2021/10/22 10:28:59;;;;;;;8.97;1.80;;;;;;;-145.69;77.86;72361.63;5094273;28;20229;-80
2021/10/22 10:31:36;;;;;;;10.00;1.50;;;;;;;-145.69;78.09;72361.63;5094603;28;20591;-76
2021/10/22 10:34:39;;;;;;;10.90;1.90;;;;;;;-145.69;79.75;72365.59;5093454;28;20391;-76
2021/10/22 10:37:20;;;;;;;12.70;1.93;;;;;;;-145.69;81.74;72381.53;5094078;28;20202;-77
2021/10/22 10:40:16;;;;;;;11.23;1.40;;;;;;;-145.69;79.20;72369.59;5093492;28;20280;-77
2021/10/22 10:42:48;;;;;;;12.80;1.93;;;;;;;-145.69;74.86;72379.53;5065020;28;20285;-76
2021/10/22 10:45:42;;;;;;;6.23;1.20;;;;;;;-145.69;74.43;72393.47;5093944;28;20209;-77
2021/10/22 10:48:10;;;;;;;9.47;1.30;;;;;;;-145.69;77.13;72391.47;5092972;28;20237;-77
2021/10/22 10:50:43;;;;;;;15.63;2.30;;;;;;;-145.69;77.34;72379.53;5093442;28;20576;-77
2021/10/22 10:53:11;;;;;;;6.87;1.33;;;;;;;-145.69;80.35;72369.59;5093856;28;20251;-77
2021/10/22 10:55:42;;;;;;;7.77;1.70;;;;;;;-145.69;82.39;72345.69;5094168;28;20202;-77
2021/10/22 10:58:17;;;;;;;9.97;1.60;;;;;;;-145.69;77.54;72333.75;5093815;28;20202;-77
2021/10/22 11:00:46;;;;;;;6.87;1.63;;;;;;;-145.69;79.95;72327.78;5093673;28;20243;-77
2021/10/22 11:03:20;;;;;;;10.53;2.60;;;;;;;-145.69;73.65;72323.81;5093558;28;20307;-77
2021/10/22 11:06:13;;;;;;;7.30;2.10;;;;;;;-145.69;74.83;72317.84;5093664;28;20193;-76
2021/10/22 11:08:48;;;;;;;4.70;1.10;;;;;;;-145.69;74.31;72317.84;5093322;28;20707;-77
2021/10/22 11:11:29;;;;;;;9.17;1.80;;;;;;;-145.69;76.52;72297.94;5093348;28;20674;-77
2021/10/22 11:13:59;;;;;;;14.47;2.43;;;;;;;-145.69;72.95;72284.00;5093463;28;20263;-78
2021/10/22 11:16:38;;;;;;;9.07;1.60;;;;;;;-145.69;77.77;72250.16;5093397;28;20194;-77